Map

Track Data

SID SEASON NUMBER BASIN SUBBASIN NAME ISO_TIME NATURE LAT LON WMO_WIND WMO_PRES WMO_AGENCY TRACK_TYPE DIST2LAND LANDFALL IFLAG USA_AGENCY USA_ATCF_ID USA_LAT USA_LON USA_RECORD USA_STATUS USA_WIND USA_PRES USA_SSHS USA_R34_NE USA_R34_SE USA_R34_SW USA_R34_NW USA_R50_NE USA_R50_SE USA_R50_SW USA_R50_NW USA_R64_NE USA_R64_SE USA_R64_SW USA_R64_NW USA_POCI USA_ROCI USA_RMW USA_EYE TOKYO_LAT TOKYO_LON TOKYO_GRADE TOKYO_WIND TOKYO_PRES TOKYO_R50_DIR TOKYO_R50_LONG TOKYO_R50_SHORT TOKYO_R30_DIR TOKYO_R30_LONG TOKYO_R30_SHORT TOKYO_LAND CMA_LAT CMA_LON CMA_CAT CMA_WIND CMA_PRES HKO_LAT HKO_LON HKO_CAT HKO_WIND HKO_PRES NEWDELHI_LAT NEWDELHI_LON NEWDELHI_GRADE NEWDELHI_WIND NEWDELHI_PRES NEWDELHI_CI NEWDELHI_DP NEWDELHI_POCI REUNION_LAT REUNION_LON REUNION_TYPE REUNION_WIND REUNION_PRES REUNION_TNUM REUNION_CI REUNION_RMW REUNION_R34_NE REUNION_R34_SE REUNION_R34_SW REUNION_R34_NW REUNION_R50_NE REUNION_R50_SE REUNION_R50_SW REUNION_R50_NW REUNION_R64_NE REUNION_R64_SE REUNION_R64_SW REUNION_R64_NW BOM_LAT BOM_LON BOM_TYPE BOM_WIND BOM_PRES BOM_TNUM BOM_CI BOM_RMW BOM_R34_NE BOM_R34_SE BOM_R34_SW BOM_R34_NW BOM_R50_NE BOM_R50_SE BOM_R50_SW BOM_R50_NW BOM_R64_NE BOM_R64_SE BOM_R64_SW BOM_R64_NW BOM_ROCI BOM_POCI BOM_EYE BOM_POS_METHOD BOM_PRES_METHOD NADI_LAT NADI_LON NADI_CAT NADI_WIND NADI_PRES WELLINGTON_LAT WELLINGTON_LON WELLINGTON_WIND WELLINGTON_PRES DS824_LAT DS824_LON DS824_STAGE DS824_WIND DS824_PRES TD9636_LAT TD9636_LON TD9636_STAGE TD9636_WIND TD9636_PRES TD9635_LAT TD9635_LON TD9635_WIND TD9635_PRES TD9635_ROCI NEUMANN_LAT NEUMANN_LON NEUMANN_CLASS NEUMANN_WIND NEUMANN_PRES MLC_LAT MLC_LON MLC_CLASS MLC_WIND MLC_PRES USA_GUST BOM_GUST BOM_GUST_PER REUNION_GUST REUNION_GUST_PER USA_SEAHGT USA_SEARAD_NE USA_SEARAD_SE USA_SEARAD_SW USA_SEARAD_NW STORM_SPEED STORM_DIR
1969241N12298 1969 65 NA CS FRANCELIA 1969-08-29 00:00:00 TS 12.0000 -62.0000 30 hurdat_atl main 147 145 O_____________ hurdat_atl AL131969 12.0000 -62.0000 TD 30 -1 20 273
1969241N12298 1969 65 NA CS FRANCELIA 1969-08-29 03:00:00 TS 12.0457 -63.0074 main 145 145 P_____________ AL131969 12.0457 -63.0074 TD 30 -1 20 273
1969241N12298 1969 65 NA CS FRANCELIA 1969-08-29 06:00:00 TS 12.1000 -64.0000 30 hurdat_atl main 168 167 O_____________ hurdat_atl AL131969 12.1000 -64.0000 TD 30 -1 19 274
1969241N12298 1969 65 NA CS FRANCELIA 1969-08-29 09:00:00 TS 12.1772 -64.9651 main 199 187 P_____________ AL131969 12.1772 -64.9651 TD 30 -1 19 276
1969241N12298 1969 65 NA CS FRANCELIA 1969-08-29 12:00:00 TS 12.3000 -65.9000 30 hurdat_atl main 190 190 O_____________ hurdat_atl AL131969 12.3000 -65.9000 TD 30 -1 18 280
1969241N12298 1969 65 NA CS FRANCELIA 1969-08-29 15:00:00 TS 12.4847 -66.8150 main 212 184 P_____________ AL131969 12.4847 -66.8150 TD 30 -1 18 283
1969241N12298 1969 65 NA CS FRANCELIA 1969-08-29 18:00:00 TS 12.7000 -67.7000 30 1005 hurdat_atl main 184 165 O_____________ hurdat_atl AL131969 12.7000 -67.7000 TD 30 1005 -1 18 284
1969241N12298 1969 65 NA CS FRANCELIA 1969-08-29 21:00:00 TS 12.8997 -68.5651 main 164 124 P_____________ AL131969 12.8997 -68.5651 TD 30 -1 17 284
1969241N12298 1969 65 NA CS FRANCELIA 1969-08-30 00:00:00 TS 13.1000 -69.4000 30 hurdat_atl main 124 116 O_____________ hurdat_atl AL131969 13.1000 -69.4000 TD 30 -1 17 284
1969241N12298 1969 65 NA CS FRANCELIA 1969-08-30 03:00:00 TS 13.3072 -70.2076 main 134 134 P_____________ AL131969 13.3072 -70.2076 TD 35 0 16 284
1969241N12298 1969 65 NA CS FRANCELIA 1969-08-30 06:00:00 TS 13.5000 -71.0000 40 hurdat_atl main 134 127 O_____________ hurdat_atl AL131969 13.5000 -71.0000 TS 40 0 16 283
1969241N12298 1969 65 NA CS FRANCELIA 1969-08-30 09:00:00 TS 13.6572 -71.8002 main 145 145 P_____________ AL131969 13.6572 -71.8002 TS 45 0 16 281
1969241N12298 1969 65 NA CS FRANCELIA 1969-08-30 12:00:00 TS 13.8000 -72.6000 50 1001 hurdat_atl main 180 180 O_____________ hurdat_atl AL131969 13.8000 -72.6000 TS 50 1001 0 16 281
1969241N12298 1969 65 NA CS FRANCELIA 1969-08-30 15:00:00 TS 13.9498 -73.4076 main 230 230 P_____________ AL131969 13.9498 -73.4076 TS 52 1000 0 16 281
1969241N12298 1969 65 NA CS FRANCELIA 1969-08-30 18:00:00 TS 14.1000 -74.2000 55 999 hurdat_atl main 303 303 O_____________ hurdat_atl AL131969 14.1000 -74.2000 TS 55 999 0 16 281
1969241N12298 1969 65 NA CS FRANCELIA 1969-08-30 21:00:00 TS 14.2424 -74.9801 main 346 346 P_____________ AL131969 14.2424 -74.9801 TS 55 0 15 282
1969241N12298 1969 65 NA CS FRANCELIA 1969-08-31 00:00:00 TS 14.4000 -75.7000 55 hurdat_atl main 390 360 O_____________ hurdat_atl AL131969 14.4000 -75.7000 TS 55 0 14 285
1969241N12298 1969 65 NA CS FRANCELIA 1969-08-31 03:00:00 TS 14.5848 -76.3451 main 360 326 P_____________ AL131969 14.5848 -76.3451 TS 55 0 12 289
1969241N12298 1969 65 NA CS FRANCELIA 1969-08-31 06:00:00 TS 14.8000 -76.9000 55 hurdat_atl main 326 302 O_____________ hurdat_atl AL131969 14.8000 -76.9000 TS 55 0 11 295
1969241N12298 1969 65 NA CS FRANCELIA 1969-08-31 09:00:00 TS 15.0423 -77.3801 main 302 273 P_____________ AL131969 15.0423 -77.3801 TS 55 0 10 300
1969241N12298 1969 65 NA CS FRANCELIA 1969-08-31 12:00:00 TS 15.3000 -77.8000 55 hurdat_atl main 276 260 O_____________ hurdat_atl AL131969 15.3000 -77.8000 TS 55 0 9 303
1969241N12298 1969 65 NA CS FRANCELIA 1969-08-31 15:00:00 TS 15.5573 -78.2001 main 258 249 P_____________ AL131969 15.5573 -78.2001 TS 52 0 9 303
1969241N12298 1969 65 NA CS FRANCELIA 1969-08-31 18:00:00 TS 15.8000 -78.6000 50 hurdat_atl main 253 247 O_____________ hurdat_atl AL131969 15.8000 -78.6000 TS 50 0 9 300
1969241N12298 1969 65 NA CS FRANCELIA 1969-08-31 21:00:00 TS 16.0073 -79.0202 main 253 246 P_____________ AL131969 16.0073 -79.0202 TS 47 0 10 295
1969241N12298 1969 65 NA CS FRANCELIA 1969-09-01 00:00:00 TS 16.2000 -79.5000 45 1002 hurdat_atl main 252 247 O_____________ hurdat_atl AL131969 16.2000 -79.5000 TS 45 1002 0 11 291
1969241N12298 1969 65 NA CS FRANCELIA 1969-09-01 03:00:00 TS 16.3999 -80.0701 main 270 269 P_____________ AL131969 16.3999 -80.0701 TS 45 0 12 289
1969241N12298 1969 65 NA CS FRANCELIA 1969-09-01 06:00:00 TS 16.6000 -80.7000 45 hurdat_atl main 302 278 O_____________ hurdat_atl AL131969 16.6000 -80.7000 TS 45 0 13 288
1969241N12298 1969 65 NA CS FRANCELIA 1969-09-01 09:00:00 TS 16.8074 -81.3425 main 278 242 P_____________ AL131969 16.8074 -81.3425 TS 47 0 13 288
1969241N12298 1969 65 NA CS FRANCELIA 1969-09-01 12:00:00 TS 17.0000 -82.0000 50 hurdat_atl main 242 223 O_____________ hurdat_atl AL131969 17.0000 -82.0000 TS 50 0 13 287
1969241N12298 1969 65 NA CS FRANCELIA 1969-09-01 15:00:00 TS 17.1873 -82.6499 main 229 198 P_____________ AL131969 17.1873 -82.6499 TS 52 0 13 284
1969241N12298 1969 65 NA CS FRANCELIA 1969-09-01 18:00:00 TS 17.3000 -83.3000 55 995 hurdat_atl main 198 170 O_____________ hurdat_atl AL131969 17.3000 -83.3000 TS 55 995 0 13 275
1969241N12298 1969 65 NA CS FRANCELIA 1969-09-01 21:00:00 TS 17.2951 -83.9877 main 170 145 P_____________ AL131969 17.2951 -83.9877 TS 60 991 0 12 265
1969241N12298 1969 65 NA CS FRANCELIA 1969-09-02 00:00:00 TS 17.2000 -84.6000 65 987 hurdat_atl main 145 134 O_____________ hurdat_atl AL131969 17.2000 -84.6000 HU 65 987 1 10 257
1969241N12298 1969 65 NA CS FRANCELIA 1969-09-02 03:00:00 TS 17.0647 -85.0450 main 134 111 P_____________ AL131969 17.0647 -85.0450 HU 67 985 1 8 249
1969241N12298 1969 65 NA CS FRANCELIA 1969-09-02 06:00:00 TS 16.9000 -85.4000 70 983 hurdat_atl main 111 100 O_____________ hurdat_atl AL131969 16.9000 -85.4000 HU 70 983 1 8 245
1969241N12298 1969 65 NA CS FRANCELIA 1969-09-02 09:00:00 TS 16.7424 -85.7650 main 89 79 P_____________ AL131969 16.7424 -85.7650 HU 75 979 1 7 246
1969241N12298 1969 65 NA CS FRANCELIA 1969-09-02 12:00:00 TS 16.6000 -86.1000 80 976 hurdat_atl main 81 74 O_____________ hurdat_atl AL131969 16.6000 -86.1000 HU 80 976 1 7 247
1969241N12298 1969 65 NA CS FRANCELIA 1969-09-02 15:00:00 TS 16.4849 -86.4074 main 78 67 P_____________ AL131969 16.4849 -86.4074 HU 82 974 1 6 251
1969241N12298 1969 65 NA CS FRANCELIA 1969-09-02 18:00:00 TS 16.4000 -86.7000 85 973 hurdat_atl main 70 55 O_____________ hurdat_atl AL131969 16.4000 -86.7000 HU 85 973 2 6 256
1969241N12298 1969 65 NA CS FRANCELIA 1969-09-02 21:00:00 TS 16.3350 -87.0150 main 55 55 P_____________ AL131969 16.3350 -87.0150 HU 85 2 6 260
1969241N12298 1969 65 NA CS FRANCELIA 1969-09-03 00:00:00 TS 16.3000 -87.3000 85 hurdat_atl main 55 55 O_____________ hurdat_atl AL131969 16.3000 -87.3000 HU 85 2 5 266
1969241N12298 1969 65 NA CS FRANCELIA 1969-09-03 03:00:00 TS 16.2999 -87.5074 main 55 55 P_____________ AL131969 16.2999 -87.5074 HU 85 2 4 270
1969241N12298 1969 65 NA CS FRANCELIA 1969-09-03 06:00:00 TS 16.3000 -87.7000 85 hurdat_atl main 55 55 O_____________ hurdat_atl AL131969 16.3000 -87.7000 HU 85 2 4 263
1969241N12298 1969 65 NA CS FRANCELIA 1969-09-03 09:00:00 TS 16.2500 -87.9500 main 48 39 P_____________ AL131969 16.2500 -87.9500 HU 85 2 5 258
1969241N12298 1969 65 NA CS FRANCELIA 1969-09-03 12:00:00 TS 16.2000 -88.2000 85 hurdat_atl main 39 21 O_____________ hurdat_atl AL131969 16.2000 -88.2000 HU 85 2 4 263
1969241N12298 1969 65 NA CS FRANCELIA 1969-09-03 15:00:00 TS 16.1931 -88.4068 main 21 0 P_____________ AL131969 16.1931 -88.4068 HU 85 2 4 270
1969241N12298 1969 65 NA CS FRANCELIA 1969-09-03 18:00:00 TS 16.2000 -88.6000 85 hurdat_atl main 0 0 O_____________ hurdat_atl AL131969 16.2000 -88.6000 HU 85 2 4 271
1969241N12298 1969 65 NA CS FRANCELIA 1969-09-03 21:00:00 TS 16.2000 -88.8000 85 hurdat_atl main 0 0 O_____________ hurdat_atl AL131969 16.2000 -88.8000 L HU 85 2 4 270
1969241N12298 1969 65 NA NA FRANCELIA 1969-09-04 00:00:00 TS 16.2000 -89.0000 70 hurdat_atl main 0 0 O_____________ hurdat_atl AL131969 16.2000 -89.0000 HU 70 1 4 270
1969241N12298 1969 65 NA NA FRANCELIA 1969-09-04 03:00:00 TS 16.2000 -89.2000 main 0 0 P_____________ AL131969 16.2000 -89.2000 HU 57 0 4 270
1969241N12298 1969 65 NA NA FRANCELIA 1969-09-04 06:00:00 TS 16.2000 -89.4000 45 hurdat_atl main 0 0 O_____________ hurdat_atl AL131969 16.2000 -89.4000 TS 45 0 4 270
1969241N12298 1969 65 NA NA FRANCELIA 1969-09-04 09:00:00 TS 16.2000 -89.6000 main 0 0 P_____________ AL131969 16.2000 -89.6000 TS 35 0 4 270
1969241N12298 1969 65 NA NA FRANCELIA 1969-09-04 12:00:00 TS 16.2000 -89.8000 25 hurdat_atl main 0 O_____________ hurdat_atl AL131969 16.2000 -89.8000 TD 25 -1 4 270

About IBTrACS Database

This database is a web-friendly format of International Best Track Archive for Climate Stewardship (IBTrACS), a global best track data archive curated by NOAA dating back to 1842.

Updated: 2022-06-24